sensor_id;sensor_type;location;lat;lon;timestamp;pressure;altitude;pressure_sealevel;temperature;humidity
19789;BME280;10054;59.332;18.244;2023-09-08T00:00:54;101729.18;;;15.93;100.00
19789;BME280;10054;59.332;18.244;2023-09-08T00:03:23;101730.52;;;15.93;100.00
19789;BME280;10054;59.332;18.244;2023-09-08T00:05:51;101729.77;;;15.91;100.00
19789;BME280;10054;59.332;18.244;2023-09-08T00:08:20;101731.20;;;15.90;100.00
19789;BME280;10054;59.332;18.244;2023-09-08T00:10:49;101729.48;;;15.89;100.00
19789;BME280;10054;59.332;18.244;2023-09-08T00:13:18;101730.65;;;15.85;100.00
19789;BME280;10054;59.332;18.244;2023-09-08T00:15:46;101728.84;;;15.85;100.00
19789;BME280;10054;59.332;18.244;2023-09-08T00:18:15;101727.72;;;15.82;100.00
19789;BME280;10054;59.332;18.244;2023-09-08T00:20:44;101736.28;;;15.80;100.00
19789;BME280;10054;59.332;18.244;2023-09-08T00:23:13;101728.87;;;15.78;100.00
19789;BME280;10054;59.332;18.244;2023-09-08T00:25:41;101727.27;;;15.75;100.00
19789;BME280;10054;59.332;18.244;2023-09-08T00:28:10;101734.13;;;15.72;100.00
19789;BME280;10054;59.332;18.244;2023-09-08T00:30:39;101731.67;;;15.69;100.00
19789;BME280;10054;59.332;18.244;2023-09-08T00:33:08;101735.86;;;15.66;100.00
19789;BME280;10054;59.332;18.244;2023-09-08T00:35:36;101723.99;;;15.65;100.00
19789;BME280;10054;59.332;18.244;2023-09-08T00:38:05;101721.91;;;15.63;100.00
19789;BME280;10054;59.332;18.244;2023-09-08T00:40:34;101722.77;;;15.63;100.00
19789;BME280;10054;59.332;18.244;2023-09-08T00:43:03;101720.68;;;15.61;100.00
19789;BME280;10054;59.332;18.244;2023-09-08T00:45:32;101722.86;;;15.62;100.00
19789;BME280;10054;59.332;18.244;2023-09-08T00:48:02;101717.64;;;15.60;100.00
19789;BME280;10054;59.332;18.244;2023-09-08T00:50:30;101721.16;;;15.61;100.00
19789;BME280;10054;59.332;18.244;2023-09-08T00:52:59;101713.66;;;15.60;100.00
19789;BME280;10054;59.332;18.244;2023-09-08T00:55:28;101717.55;;;15.62;100.00
19789;BME280;10054;59.332;18.244;2023-09-08T00:57:58;101712.70;;;15.61;100.00
19789;BME280;10054;59.332;18.244;2023-09-08T01:00:27;101712.22;;;15.62;100.00
19789;BME280;10054;59.332;18.244;2023-09-08T01:02:56;101713.08;;;15.62;100.00
19789;BME280;10054;59.332;18.244;2023-09-08T01:05:24;101708.34;;;15.60;100.00
19789;BME280;10054;59.332;18.244;2023-09-08T01:07:54;101701.45;;;15.58;100.00
19789;BME280;10054;59.332;18.244;2023-09-08T01:10:23;101705.44;;;15.58;100.00
19789;BME280;10054;59.332;18.244;2023-09-08T01:12:52;101702.47;;;15.55;100.00
19789;BME280;10054;59.332;18.244;2023-09-08T01:15:21;101701.98;;;15.56;100.00
19789;BME280;10054;59.332;18.244;2023-09-08T01:17:50;101705.50;;;15.56;100.00
19789;BME280;10054;59.332;18.244;2023-09-08T01:20:25;101704.11;;;15.58;100.00
19789;BME280;10054;59.332;18.244;2023-09-08T01:25:25;101703.32;;;15.56;100.00
19789;BME280;10054;59.332;18.244;2023-09-08T01:27:57;101698.85;;;15.56;100.00
19789;BME280;10054;59.332;18.244;2023-09-08T01:30:28;101712.56;;;15.57;100.00
19789;BME280;10054;59.332;18.244;2023-09-08T01:32:59;101709.05;;;15.57;100.00
19789;BME280;10054;59.332;18.244;2023-09-08T01:35:28;101707.72;;;15.57;100.00
19789;BME280;10054;59.332;18.244;2023-09-08T01:37:59;101710.45;;;15.55;100.00
19789;BME280;10054;59.332;18.244;2023-09-08T01:40:28;101704.65;;;15.56;100.00
19789;BME280;10054;59.332;18.244;2023-09-08T01:42:57;101705.60;;;15.55;100.00
19789;BME280;10054;59.332;18.244;2023-09-08T01:45:26;101709.49;;;15.56;100.00
19789;BME280;10054;59.332;18.244;2023-09-08T01:47:55;101699.81;;;15.55;100.00
19789;BME280;10054;59.332;18.244;2023-09-08T01:50:25;101702.84;;;15.56;100.00
19789;BME280;10054;59.332;18.244;2023-09-08T01:52:55;101696.19;;;15.56;100.00
19789;BME280;10054;59.332;18.244;2023-09-08T01:55:23;101697.94;;;15.57;100.00
19789;BME280;10054;59.332;18.244;2023-09-08T01:57:54;101699.73;;;15.57;100.00
19789;BME280;10054;59.332;18.244;2023-09-08T02:00:23;101695.65;;;15.58;100.00
19789;BME280;10054;59.332;18.244;2023-09-08T02:02:51;101695.17;;;15.59;100.00
19789;BME280;10054;59.332;18.244;2023-09-08T02:05:20;101689.72;;;15.60;100.00
19789;BME280;10054;59.332;18.244;2023-09-08T02:07:49;101685.25;;;15.61;100.00
19789;BME280;10054;59.332;18.244;2023-09-08T02:10:18;101692.27;;;15.62;100.00
19789;BME280;10054;59.332;18.244;2023-09-08T02:12:48;101689.61;;;15.62;100.00
19789;BME280;10054;59.332;18.244;2023-09-08T02:15:17;101686.48;;;15.62;100.00
19789;BME280;10054;59.332;18.244;2023-09-08T02:17:45;101679.83;;;15.62;100.00
19789;BME280;10054;59.332;18.244;2023-09-08T02:20:14;101682.48;;;15.62;100.00
19789;BME280;10054;59.332;18.244;2023-09-08T02:22:44;101682.01;;;15.63;100.00
19789;BME280;10054;59.332;18.244;2023-09-08T02:25:14;101677.17;;;15.62;100.00
19789;BME280;10054;59.332;18.244;2023-09-08T02:27:42;101683.34;;;15.63;100.00
19789;BME280;10054;59.332;18.244;2023-09-08T02:30:11;101674.13;;;15.61;100.00
19789;BME280;10054;59.332;18.244;2023-09-08T02:32:40;101678.88;;;15.63;100.00
19789;BME280;10054;59.332;18.244;2023-09-08T02:35:11;101669.66;;;15.62;100.00
19789;BME280;10054;59.332;18.244;2023-09-08T02:37:40;101663.49;;;15.61;100.00
19789;BME280;10054;59.332;18.244;2023-09-08T02:40:09;101667.86;;;15.62;100.00
19789;BME280;10054;59.332;18.244;2023-09-08T02:42:39;101661.31;;;15.61;100.00
19789;BME280;10054;59.332;18.244;2023-09-08T02:45:08;101657.32;;;15.61;100.00
19789;BME280;10054;59.332;18.244;2023-09-08T02:47:37;101649.81;;;15.60;100.00
19789;BME280;10054;59.332;18.244;2023-09-08T02:50:06;101652.98;;;15.60;100.00
19789;BME280;10054;59.332;18.244;2023-09-08T02:52:35;101654.31;;;15.60;100.00
19789;BME280;10054;59.332;18.244;2023-09-08T02:55:04;101655.52;;;15.61;100.00
19789;BME280;10054;59.332;18.244;2023-09-08T02:57:32;101656.36;;;15.62;100.00
19789;BME280;10054;59.332;18.244;2023-09-08T03:00:02;101650.67;;;15.61;100.00
19789;BME280;10054;59.332;18.244;2023-09-08T03:02:32;101649.81;;;15.60;100.00
19789;BME280;10054;59.332;18.244;2023-09-08T03:05:01;101652.61;;;15.59;100.00
19789;BME280;10054;59.332;18.244;2023-09-08T03:07:30;101648.25;;;15.58;100.00
19789;BME280;10054;59.332;18.244;2023-09-08T03:10:01;101646.55;;;15.57;100.00
19789;BME280;10054;59.332;18.244;2023-09-08T03:12:31;101650.60;;;15.55;100.00
19789;BME280;10054;59.332;18.244;2023-09-08T03:15:02;101655.45;;;15.56;100.00
19789;BME280;10054;59.332;18.244;2023-09-08T03:17:31;101653.27;;;15.55;100.00
19789;BME280;10054;59.332;18.244;2023-09-08T03:20:00;101651.19;;;15.53;100.00
19789;BME280;10054;59.332;18.244;2023-09-08T03:22:29;101648.52;;;15.53;100.00
19789;BME280;10054;59.332;18.244;2023-09-08T03:24:57;101651.66;;;15.53;100.00
19789;BME280;10054;59.332;18.244;2023-09-08T03:27:26;101653.47;;;15.52;100.00
19789;BME280;10054;59.332;18.244;2023-09-08T03:29:55;101653.84;;;15.53;100.00
19789;BME280;10054;59.332;18.244;2023-09-08T03:32:26;101648.15;;;15.52;100.00
19789;BME280;10054;59.332;18.244;2023-09-08T03:34:56;101648.62;;;15.52;100.00
19789;BME280;10054;59.332;18.244;2023-09-08T03:37:25;101645.97;;;15.52;100.00
19789;BME280;10054;59.332;18.244;2023-09-08T03:39:57;101648.15;;;15.52;100.00
19789;BME280;10054;59.332;18.244;2023-09-08T03:42:26;101638.94;;;15.51;100.00
19789;BME280;10054;59.332;18.244;2023-09-08T03:44:54;101643.89;;;15.50;100.00
19789;BME280;10054;59.332;18.244;2023-09-08T03:47:24;101643.41;;;15.50;100.00
19789;BME280;10054;59.332;18.244;2023-09-08T03:49:53;101647.88;;;15.50;100.00
19789;BME280;10054;59.332;18.244;2023-09-08T03:52:22;101645.22;;;15.50;100.00
19789;BME280;10054;59.332;18.244;2023-09-08T03:54:51;101648.73;;;15.50;100.00
19789;BME280;10054;59.332;18.244;2023-09-08T03:57:20;101645.11;;;15.51;100.00
19789;BME280;10054;59.332;18.244;2023-09-08T03:59:49;101647.67;;;15.53;100.00
19789;BME280;10054;59.332;18.244;2023-09-08T04:02:19;101652.14;;;15.52;100.00
19789;BME280;10054;59.332;18.244;2023-09-08T04:04:48;101652.14;;;15.52;100.00
19789;BME280;10054;59.332;18.244;2023-09-08T04:07:17;101648.52;;;15.53;100.00
19789;BME280;10054;59.332;18.244;2023-09-08T04:09:46;101653.36;;;15.54;100.00
19789;BME280;10054;59.332;18.244;2023-09-08T04:12:15;101650.23;;;15.54;100.00
19789;BME280;10054;59.332;18.244;2023-09-08T04:14:44;101647.47;;;15.56;100.00
19789;BME280;10054;59.332;18.244;2023-09-08T04:17:12;101650.53;;;15.57;100.00
19789;BME280;10054;59.332;18.244;2023-09-08T04:19:41;101649.09;;;15.58;100.00
19789;BME280;10054;59.332;18.244;2023-09-08T04:22:10;101651.66;;;15.60;100.00
19789;BME280;10054;59.332;18.244;2023-09-08T04:24:39;101655.89;;;15.62;100.00
19789;BME280;10054;59.332;18.244;2023-09-08T04:27:08;101649.14;;;15.64;100.00
19789;BME280;10054;59.332;18.244;2023-09-08T04:29:39;101649.78;;;15.67;100.00
19789;BME280;10054;59.332;18.244;2023-09-08T04:32:07;101655.75;;;15.71;100.00
19789;BME280;10054;59.332;18.244;2023-09-08T04:34:40;101652.41;;;15.74;100.00
19789;BME280;10054;59.332;18.244;2023-09-08T04:37:10;101657.78;;;15.80;100.00
19789;BME280;10054;59.332;18.244;2023-09-08T04:39:39;101656.04;;;15.86;100.00
19789;BME280;10054;59.332;18.244;2023-09-08T04:42:08;101661.22;;;15.95;100.00
19789;BME280;10054;59.332;18.244;2023-09-08T04:44:37;101655.84;;;16.02;100.00
19789;BME280;10054;59.332;18.244;2023-09-08T04:47:06;101654.84;;;16.10;100.00
19789;BME280;10054;59.332;18.244;2023-09-08T04:49:35;101655.91;;;16.20;100.00
19789;BME280;10054;59.332;18.244;2023-09-08T04:52:05;101648.61;;;16.29;100.00
19789;BME280;10054;59.332;18.244;2023-09-08T04:54:34;101650.48;;;16.40;100.00
19789;BME280;10054;59.332;18.244;2023-09-08T04:57:03;101655.16;;;16.49;100.00
19789;BME280;10054;59.332;18.244;2023-09-08T04:59:32;101657.66;;;16.58;100.00
19789;BME280;10054;59.332;18.244;2023-09-08T05:02:00;101662.17;;;16.63;100.00
19789;BME280;10054;59.332;18.244;2023-09-08T05:04:29;101660.17;;;16.66;100.00
19789;BME280;10054;59.332;18.244;2023-09-08T05:06:58;101655.81;;;16.65;100.00
19789;BME280;10054;59.332;18.244;2023-09-08T05:09:28;101652.30;;;16.65;100.00
19789;BME280;10054;59.332;18.244;2023-09-08T05:11:57;101649.15;;;16.65;100.00
19789;BME280;10054;59.332;18.244;2023-09-08T05:14:28;101649.22;;;16.64;100.00
19789;BME280;10054;59.332;18.244;2023-09-08T05:16:58;101649.44;;;16.61;100.00
19789;BME280;10054;59.332;18.244;2023-09-08T05:19:28;101659.25;;;16.60;100.00
19789;BME280;10054;59.332;18.244;2023-09-08T05:21:57;101657.44;;;16.61;100.00
19789;BME280;10054;59.332;18.244;2023-09-08T05:24:26;101652.11;;;16.61;100.00
19789;BME280;10054;59.332;18.244;2023-09-08T05:26:55;101652.11;;;16.61;100.00
19789;BME280;10054;59.332;18.244;2023-09-08T05:29:24;101652.48;;;16.62;100.00
19789;BME280;10054;59.332;18.244;2023-09-08T05:31:54;101654.11;;;16.64;100.00
19789;BME280;10054;59.332;18.244;2023-09-08T05:34:23;101656.55;;;16.67;100.00
19789;BME280;10054;59.332;18.244;2023-09-08T05:36:51;101653.93;;;16.73;100.00
19789;BME280;10054;59.332;18.244;2023-09-08T05:39:20;101651.52;;;16.75;100.00
19789;BME280;10054;59.332;18.244;2023-09-08T05:41:49;101652.05;;;16.81;100.00
19789;BME280;10054;59.332;18.244;2023-09-08T05:44:19;101653.78;;;16.87;100.00
19789;BME280;10054;59.332;18.244;2023-09-08T05:46:49;101654.56;;;16.95;100.00
19789;BME280;10054;59.332;18.244;2023-09-08T05:49:17;101649.75;;;17.00;100.00
19789;BME280;10054;59.332;18.244;2023-09-08T05:51:47;101656.56;;;17.04;100.00
19789;BME280;10054;59.332;18.244;2023-09-08T05:54:15;101658.15;;;17.06;100.00
19789;BME280;10054;59.332;18.244;2023-09-08T05:56:44;101655.38;;;17.08;100.00
19789;BME280;10054;59.332;18.244;2023-09-08T05:59:13;101659.70;;;17.09;100.00
19789;BME280;10054;59.332;18.244;2023-09-08T06:01:42;101652.45;;;17.11;100.00
19789;BME280;10054;59.332;18.244;2023-09-08T06:04:11;101643.86;;;17.13;100.00
19789;BME280;10054;59.332;18.244;2023-09-08T06:06:40;101649.22;;;17.19;100.00
19789;BME280;10054;59.332;18.244;2023-09-08T06:09:09;101652.88;;;17.23;100.00
19789;BME280;10054;59.332;18.244;2023-09-08T06:11:40;101642.23;;;17.29;100.00
19789;BME280;10054;59.332;18.244;2023-09-08T06:14:10;101647.48;;;17.36;100.00
19789;BME280;10054;59.332;18.244;2023-09-08T06:16:40;101641.69;;;17.42;100.00
19789;BME280;10054;59.332;18.244;2023-09-08T06:19:09;101649.58;;;17.44;100.00
19789;BME280;10054;59.332;18.244;2023-09-08T06:21:38;101649.72;;;17.48;100.00
19789;BME280;10054;59.332;18.244;2023-09-08T06:24:08;101649.01;;;17.51;100.00
19789;BME280;10054;59.332;18.244;2023-09-08T06:26:38;101645.51;;;17.56;100.00
19789;BME280;10054;59.332;18.244;2023-09-08T06:29:07;101642.61;;;17.59;100.00
19789;BME280;10054;59.332;18.244;2023-09-08T06:31:36;101645.21;;;17.66;100.00
19789;BME280;10054;59.332;18.244;2023-09-08T06:34:05;101638.79;;;17.69;100.00
19789;BME280;10054;59.332;18.244;2023-09-08T06:36:34;101631.89;;;17.72;100.00
19789;BME280;10054;59.332;18.244;2023-09-08T06:39:03;101635.91;;;17.78;100.00
19789;BME280;10054;59.332;18.244;2023-09-08T06:41:33;101640.37;;;17.83;100.00
19789;BME280;10054;59.332;18.244;2023-09-08T06:44:02;101637.47;;;17.86;100.00
19789;BME280;10054;59.332;18.244;2023-09-08T06:46:32;101639.19;;;17.92;100.00
19789;BME280;10054;59.332;18.244;2023-09-08T06:49:00;101649.27;;;18.00;100.00
19789;BME280;10054;59.332;18.244;2023-09-08T06:51:30;101642.24;;;18.04;100.00
19789;BME280;10054;59.332;18.244;2023-09-08T06:54:00;101642.48;;;18.07;100.00
19789;BME280;10054;59.332;18.244;2023-09-08T06:56:30;101638.73;;;18.10;100.00
19789;BME280;10054;59.332;18.244;2023-09-08T06:58:59;101634.36;;;18.09;100.00
19789;BME280;10054;59.332;18.244;2023-09-08T07:01:28;101642.73;;;18.10;100.00
19789;BME280;10054;59.332;18.244;2023-09-08T07:03:57;101638.48;;;18.07;100.00
19789;BME280;10054;59.332;18.244;2023-09-08T07:06:27;101631.45;;;18.12;100.00
19789;BME280;10054;59.332;18.244;2023-09-08T07:08:56;101631.34;;;18.19;100.00
19789;BME280;10054;59.332;18.244;2023-09-08T07:11:25;101638.38;;;18.20;100.00
19789;BME280;10054;59.332;18.244;2023-09-08T07:13:54;101639.48;;;18.28;100.00
19789;BME280;10054;59.332;18.244;2023-09-08T07:16:22;101645.55;;;18.36;100.00
19789;BME280;10054;59.332;18.244;2023-09-08T07:18:51;101641.18;;;18.41;100.00
19789;BME280;10054;59.332;18.244;2023-09-08T07:21:20;101645.67;;;18.46;100.00
19789;BME280;10054;59.332;18.244;2023-09-08T07:23:51;101639.73;;;18.48;100.00
19789;BME280;10054;59.332;18.244;2023-09-08T07:26:21;101642.88;;;18.53;100.00
19789;BME280;10054;59.332;18.244;2023-09-08T07:28:50;101638.47;;;18.57;100.00
19789;BME280;10054;59.332;18.244;2023-09-08T07:31:19;101644.82;;;18.62;100.00
19789;BME280;10054;59.332;18.244;2023-09-08T07:33:48;101643.61;;;18.66;100.00
19789;BME280;10054;59.332;18.244;2023-09-08T07:36:18;101648.09;;;18.71;100.00
19789;BME280;10054;59.332;18.244;2023-09-08T07:38:47;101647.48;;;18.73;100.00
19789;BME280;10054;59.332;18.244;2023-09-08T07:41:16;101645.53;;;18.81;100.00
19789;BME280;10054;59.332;18.244;2023-09-08T07:43:45;101644.92;;;18.83;100.00
19789;BME280;10054;59.332;18.244;2023-09-08T07:46:15;101638.47;;;18.85;100.00
19789;BME280;10054;59.332;18.244;2023-09-08T07:48:44;101634.34;;;18.87;100.00
19789;BME280;10054;59.332;18.244;2023-09-08T07:51:12;101631.42;;;18.90;100.00
19789;BME280;10054;59.332;18.244;2023-09-08T07:53:41;101633.83;;;18.98;100.00
19789;BME280;10054;59.332;18.244;2023-09-08T07:56:10;101639.89;;;19.06;100.00
19789;BME280;10054;59.332;18.244;2023-09-08T07:58:39;101650.69;;;19.16;100.00
19789;BME280;10054;59.332;18.244;2023-09-08T08:01:08;101654.68;;;19.21;100.00
19789;BME280;10054;59.332;18.244;2023-09-08T08:03:37;101657.10;;;19.24;100.00
19789;BME280;10054;59.332;18.244;2023-09-08T08:06:05;101654.79;;;19.25;100.00
19789;BME280;10054;59.332;18.244;2023-09-08T08:08:34;101656.13;;;19.25;100.00
19789;BME280;10054;59.332;18.244;2023-09-08T08:11:15;101657.57;;;19.29;100.00
19789;BME280;10054;59.332;18.244;2023-09-08T08:13:46;101663.36;;;19.34;100.00
19789;BME280;10054;59.332;18.244;2023-09-08T08:16:14;101660.92;;;19.37;100.00
19789;BME280;10054;59.332;18.244;2023-09-08T08:18:43;101661.16;;;19.40;100.00
19789;BME280;10054;59.332;18.244;2023-09-08T08:21:12;101664.42;;;19.43;100.00
19789;BME280;10054;59.332;18.244;2023-09-08T08:23:41;101662.11;;;19.44;100.00
19789;BME280;10054;59.332;18.244;2023-09-08T08:26:10;101657.36;;;19.53;100.00
19789;BME280;10054;59.332;18.244;2023-09-08T08:28:39;101653.30;;;19.64;100.00
19789;BME280;10054;59.332;18.244;2023-09-08T08:31:07;101657.13;;;19.77;100.00
19789;BME280;10054;59.332;18.244;2023-09-08T08:33:36;101658.17;;;19.86;100.00
19789;BME280;10054;59.332;18.244;2023-09-08T08:36:06;101660.30;;;19.97;100.00
19789;BME280;10054;59.332;18.244;2023-09-08T08:38:35;101655.95;;;20.06;100.00
19789;BME280;10054;59.332;18.244;2023-09-08T08:41:04;101651.66;;;20.09;100.00
19789;BME280;10054;59.332;18.244;2023-09-08T08:43:33;101645.88;;;20.19;100.00
19789;BME280;10054;59.332;18.244;2023-09-08T08:46:02;101638.28;;;20.24;100.00
19789;BME280;10054;59.332;18.244;2023-09-08T08:48:32;101631.14;;;20.34;100.00
19789;BME280;10054;59.332;18.244;2023-09-08T08:51:02;101634.52;;;20.42;100.00
19789;BME280;10054;59.332;18.244;2023-09-08T08:53:32;101643.72;;;20.49;100.00
19789;BME280;10054;59.332;18.244;2023-09-08T08:56:02;101644.52;;;20.55;100.00
19789;BME280;10054;59.332;18.244;2023-09-08T08:58:33;101647.15;;;20.61;100.00
19789;BME280;10054;59.332;18.244;2023-09-08T09:01:04;101645.62;;;20.68;100.00
19789;BME280;10054;59.332;18.244;2023-09-08T09:03:33;101649.59;;;20.74;100.00
19789;BME280;10054;59.332;18.244;2023-09-08T09:06:05;101651.16;;;20.76;100.00
19789;BME280;10054;59.332;18.244;2023-09-08T09:08:35;101656.78;;;20.83;100.00
19789;BME280;10054;59.332;18.244;2023-09-08T09:11:04;101653.42;;;20.90;100.00
19789;BME280;10054;59.332;18.244;2023-09-08T09:13:33;101651.17;;;20.95;100.00
19789;BME280;10054;59.332;18.244;2023-09-08T09:16:02;101642.22;;;21.00;100.00
19789;BME280;10054;59.332;18.244;2023-09-08T09:18:31;101637.72;;;21.11;100.00
19789;BME280;10054;59.332;18.244;2023-09-08T09:21:01;101632.64;;;21.17;100.00
19789;BME280;10054;59.332;18.244;2023-09-08T09:23:34;101640.66;;;21.23;100.00
19789;BME280;10054;59.332;18.244;2023-09-08T09:26:04;101632.60;;;21.23;100.00
19789;BME280;10054;59.332;18.244;2023-09-08T09:28:32;101626.46;;;21.26;100.00
19789;BME280;10054;59.332;18.244;2023-09-08T09:31:01;101630.91;;;21.31;100.00
19789;BME280;10054;59.332;18.244;2023-09-08T09:33:30;101634.45;;;21.32;100.00
19789;BME280;10054;59.332;18.244;2023-09-08T09:35:59;101625.76;;;21.34;100.00
19789;BME280;10054;59.332;18.244;2023-09-08T09:38:28;101618.55;;;21.35;100.00
19789;BME280;10054;59.332;18.244;2023-09-08T09:40:56;101620.88;;;21.43;100.00
19789;BME280;10054;59.332;18.244;2023-09-08T09:43:27;101622.51;;;21.50;100.00
19789;BME280;10054;59.332;18.244;2023-09-08T09:45:57;101621.55;;;21.55;100.00
19789;BME280;10054;59.332;18.244;2023-09-08T09:48:26;101620.91;;;21.57;100.00
19789;BME280;10054;59.332;18.244;2023-09-08T09:50:57;101613.63;;;21.63;100.00
19789;BME280;10054;59.332;18.244;2023-09-08T09:53:26;101617.44;;;21.70;100.00
19789;BME280;10054;59.332;18.244;2023-09-08T09:55:56;101616.16;;;21.74;100.00
19789;BME280;10054;59.332;18.244;2023-09-08T09:58:25;101612.69;;;21.78;100.00
19789;BME280;10054;59.332;18.244;2023-09-08T10:00:55;101613.25;;;21.81;100.00
19789;BME280;10054;59.332;18.244;2023-09-08T10:03:24;101617.48;;;21.84;100.00
19789;BME280;10054;59.332;18.244;2023-09-08T10:05:53;101617.20;;;21.87;100.00
19789;BME280;10054;59.332;18.244;2023-09-08T10:08:23;101615.48;;;21.95;100.00
19789;BME280;10054;59.332;18.244;2023-09-08T10:10:52;101617.88;;;22.08;100.00
19789;BME280;10054;59.332;18.244;2023-09-08T10:13:26;101620.69;;;22.16;100.00
19789;BME280;10054;59.332;18.244;2023-09-08T10:15:58;101611.25;;;22.26;100.00
19789;BME280;10054;59.332;18.244;2023-09-08T10:18:29;101613.45;;;22.30;99.79
19789;BME280;10054;59.332;18.244;2023-09-08T10:21:03;101615.85;;;22.34;100.00
19789;BME280;10054;59.332;18.244;2023-09-08T10:23:35;101613.07;;;22.39;100.00
19789;BME280;10054;59.332;18.244;2023-09-08T10:26:05;101615.85;;;22.34;97.58
19789;BME280;10054;59.332;18.244;2023-09-08T10:28:36;101616.61;;;22.40;98.38
19789;BME280;10054;59.332;18.244;2023-09-08T10:31:06;101614.41;;;22.39;97.73
19789;BME280;10054;59.332;18.244;2023-09-08T10:33:37;101610.93;;;22.43;98.09
19789;BME280;10054;59.332;18.244;2023-09-08T10:36:06;101614.42;;;22.53;98.81
19789;BME280;10054;59.332;18.244;2023-09-08T10:38:37;101601.57;;;22.60;98.63
19789;BME280;10054;59.332;18.244;2023-09-08T10:44:00;101610.19;;;22.64;93.63
19789;BME280;10054;59.332;18.244;2023-09-08T10:46:26;101604.11;;;22.62;95.15
19789;BME280;10054;59.332;18.244;2023-09-08T10:49:00;101597.39;;;22.62;95.09
19789;BME280;10054;59.332;18.244;2023-09-08T10:51:26;101615.22;;;22.63;94.93
19789;BME280;10054;59.332;18.244;2023-09-08T10:53:55;101606.20;;;22.68;95.75
19789;BME280;10054;59.332;18.244;2023-09-08T10:56:31;101611.03;;;22.78;96.71
19789;BME280;10054;59.332;18.244;2023-09-08T10:58:59;101610.66;;;22.87;96.64
19789;BME280;10054;59.332;18.244;2023-09-08T11:01:29;101614.27;;;22.96;96.56
19789;BME280;10054;59.332;18.244;2023-09-08T11:03:58;101617.70;;;23.02;95.60
19789;BME280;10054;59.332;18.244;2023-09-08T11:06:28;101617.76;;;23.10;95.20
19789;BME280;10054;59.332;18.244;2023-09-08T11:09:05;101608.19;;;23.11;93.19
19789;BME280;10054;59.332;18.244;2023-09-08T11:11:32;101611.91;;;23.14;92.89
19789;BME280;10054;59.332;18.244;2023-09-08T11:14:01;101610.11;;;23.19;92.65
19789;BME280;10054;59.332;18.244;2023-09-08T11:16:31;101613.14;;;23.20;92.92
19789;BME280;10054;59.332;18.244;2023-09-08T11:19:00;101610.80;;;23.21;92.91
19789;BME280;10054;59.332;18.244;2023-09-08T11:21:31;101604.72;;;23.19;93.12
19789;BME280;10054;59.332;18.244;2023-09-08T11:24:03;101604.72;;;23.19;93.10
19789;BME280;10054;59.332;18.244;2023-09-08T11:26:33;101610.77;;;23.17;92.36
19789;BME280;10054;59.332;18.244;2023-09-08T11:29:03;101607.22;;;23.16;91.60
19789;BME280;10054;59.332;18.244;2023-09-08T11:31:32;101615.34;;;23.20;91.25
19789;BME280;10054;59.332;18.244;2023-09-08T11:34:03;101612.84;;;23.23;90.31
19789;BME280;10054;59.332;18.244;2023-09-08T11:36:32;101608.06;;;23.35;90.70
19789;BME280;10054;59.332;18.244;2023-09-08T11:39:05;101608.14;;;23.43;89.80
19789;BME280;10054;59.332;18.244;2023-09-08T11:41:34;101609.14;;;23.42;88.48
19789;BME280;10054;59.332;18.244;2023-09-08T11:44:03;101601.75;;;23.44;88.45
19789;BME280;10054;59.332;18.244;2023-09-08T11:46:34;101601.91;;;23.42;88.00
19789;BME280;10054;59.332;18.244;2023-09-08T11:49:04;101601.06;;;23.42;87.16
19789;BME280;10054;59.332;18.244;2023-09-08T11:51:35;101597.05;;;23.46;87.73
19789;BME280;10054;59.332;18.244;2023-09-08T11:54:05;101594.55;;;23.48;87.14
19789;BME280;10054;59.332;18.244;2023-09-08T11:56:34;101587.97;;;23.47;85.82
19789;BME280;10054;59.332;18.244;2023-09-08T11:59:04;101584.78;;;23.47;85.21
19789;BME280;10054;59.332;18.244;2023-09-08T12:01:33;101579.77;;;23.52;86.30
19789;BME280;10054;59.332;18.244;2023-09-08T12:04:02;101582.03;;;23.57;87.00
19789;BME280;10054;59.332;18.244;2023-09-08T12:06:31;101587.41;;;23.57;86.72
19789;BME280;10054;59.332;18.244;2023-09-08T12:09:03;101583.22;;;23.58;86.93
19789;BME280;10054;59.332;18.244;2023-09-08T12:11:35;101584.06;;;23.59;86.77
19789;BME280;10054;59.332;18.244;2023-09-08T12:14:07;101581.88;;;23.58;86.22
19789;BME280;10054;59.332;18.244;2023-09-08T12:16:39;101585.41;;;23.59;86.42
19789;BME280;10054;59.332;18.244;2023-09-08T12:19:08;101584.09;;;23.63;85.97
19789;BME280;10054;59.332;18.244;2023-09-08T12:22:02;101579.89;;;23.65;86.40
19789;BME280;10054;59.332;18.244;2023-09-08T12:27:24;101578.39;;;23.66;84.68
19789;BME280;10054;59.332;18.244;2023-09-08T12:33:26;101565.32;;;23.75;83.51
19789;BME280;10054;59.332;18.244;2023-09-08T12:35:55;101569.86;;;23.79;82.75
19789;BME280;10054;59.332;18.244;2023-09-08T12:38:30;101564.81;;;23.80;82.58
19789;BME280;10054;59.332;18.244;2023-09-08T12:40:54;101562.63;;;23.75;82.21
19789;BME280;10054;59.332;18.244;2023-09-08T12:43:23;101564.58;;;23.65;81.22
19789;BME280;10054;59.332;18.244;2023-09-08T12:45:52;101564.02;;;23.57;81.09
19789;BME280;10054;59.332;18.244;2023-09-08T12:48:21;101563.42;;;23.50;81.94
19789;BME280;10054;59.332;18.244;2023-09-08T12:50:50;101560.57;;;23.51;82.75
19789;BME280;10054;59.332;18.244;2023-09-08T12:53:19;101560.13;;;23.56;82.61
19789;BME280;10054;59.332;18.244;2023-09-08T12:55:49;101557.25;;;23.53;82.44